createdAt,value
2022-08-17T00:01:02.848Z,34.38
2022-08-17T00:04:17.840Z,34.35
2022-08-17T00:07:01.605Z,34.34
2022-08-17T00:09:48.750Z,34.31
2022-08-17T00:12:41.535Z,34.33
2022-08-17T00:15:12.425Z,34.28
2022-08-17T00:19:06.865Z,34.24
2022-08-17T00:22:32.032Z,34.19
2022-08-17T00:25:48.601Z,34.21
2022-08-17T00:28:45.132Z,34.23
2022-08-17T00:31:04.516Z,34.27
2022-08-17T00:34:12.881Z,34.27
2022-08-17T00:36:46.163Z,34.27
2022-08-17T00:39:52.633Z,34.26
2022-08-17T00:43:15.591Z,34.23
2022-08-17T00:46:13.361Z,34.19
2022-08-17T00:48:43.787Z,34.17
2022-08-17T00:52:11.793Z,34.18
2022-08-17T00:55:03.491Z,34.14
2022-08-17T00:58:01.659Z,34.08
2022-08-17T01:00:54.653Z,34.04
2022-08-17T01:03:47.555Z,34.00
2022-08-17T01:06:57.452Z,33.93
2022-08-17T01:10:58.954Z,33.86
2022-08-17T01:13:52.427Z,33.77
2022-08-17T01:17:04.750Z,33.73
2022-08-17T01:19:47.148Z,33.64
2022-08-17T01:22:47.240Z,33.57
2022-08-17T01:25:41.152Z,33.53
2022-08-17T01:27:55.671Z,33.48
2022-08-17T01:30:57.718Z,33.44
2022-08-17T01:33:18.323Z,33.39
2022-08-17T01:36:23.911Z,33.36
2022-08-17T01:39:23.546Z,33.30
2022-08-17T01:42:40.661Z,33.23
2022-08-17T01:45:42.816Z,33.17
2022-08-17T01:48:43.780Z,33.09
2022-08-17T01:51:45.440Z,33.05
2022-08-17T01:54:43.715Z,33.00
2022-08-17T01:57:16.096Z,32.95
2022-08-17T02:00:14.765Z,32.91
2022-08-17T02:03:24.546Z,32.86
2022-08-17T02:05:54.360Z,32.79
2022-08-17T02:08:38.911Z,32.73
2022-08-17T02:12:38.830Z,32.68
2022-08-17T02:15:22.648Z,32.60
2022-08-17T02:17:42.202Z,32.54
2022-08-17T02:20:42.324Z,32.48
2022-08-17T02:23:32.319Z,32.34
2022-08-17T02:26:32.810Z,32.28
2022-08-17T02:29:42.250Z,32.19
2022-08-17T02:33:09.383Z,32.14
2022-08-17T02:36:02.023Z,32.07
2022-08-17T02:38:44.660Z,31.99
2022-08-17T02:41:21.373Z,31.92
2022-08-17T02:43:34.725Z,31.84
2022-08-17T02:46:20.716Z,31.79
2022-08-17T02:49:37.182Z,31.70
2022-08-17T02:52:43.139Z,31.59
2022-08-17T02:56:00.634Z,31.52
2022-08-17T02:58:35.486Z,31.43
2022-08-17T03:01:43.126Z,31.35
2022-08-17T03:04:35.190Z,31.26
2022-08-17T03:07:21.767Z,31.17
2022-08-17T03:10:20.759Z,31.08
2022-08-17T03:13:05.906Z,30.97
2022-08-17T03:15:43.866Z,30.89
2022-08-17T03:18:06.811Z,30.82
2022-08-17T03:21:06.731Z,30.75
2022-08-17T03:23:34.831Z,30.67
2022-08-17T03:26:30.641Z,30.58
2022-08-17T03:29:36.716Z,30.51
2022-08-17T03:32:21.562Z,30.43
2022-08-17T03:35:21.950Z,30.34
2022-08-17T03:38:29.000Z,30.20
2022-08-17T03:41:28.203Z,30.09
2022-08-17T03:43:49.183Z,30.01
2022-08-17T03:46:35.597Z,29.91
2022-08-17T03:49:35.082Z,29.78
2022-08-17T03:52:12.280Z,29.63
2022-08-17T03:54:43.106Z,29.51
2022-08-17T03:57:27.154Z,29.38
2022-08-17T03:59:39.063Z,29.29
2022-08-17T04:02:26.635Z,29.22
2022-08-17T04:04:43.871Z,29.14
2022-08-17T04:07:32.151Z,29.08
2022-08-17T04:10:00.413Z,29.01
2022-08-17T04:12:32.683Z,28.93
2022-08-17T04:15:38.618Z,28.87
2022-08-17T04:18:11.083Z,28.80
2022-08-17T04:21:05.679Z,28.74
2022-08-17T04:23:45.964Z,28.68
2022-08-17T04:26:53.379Z,28.63
2022-08-17T04:29:13.480Z,28.54
2022-08-17T04:32:58.621Z,28.49
2022-08-17T04:35:37.145Z,28.42
2022-08-17T04:38:07.324Z,28.36
2022-08-17T04:41:13.345Z,28.30
2022-08-17T04:43:47.462Z,28.23
2022-08-17T04:46:10.708Z,28.19
2022-08-17T04:48:55.013Z,28.14
2022-08-17T04:51:08.417Z,28.09
2022-08-17T04:53:32.421Z,28.04
2022-08-17T04:56:16.916Z,27.98
2022-08-17T04:58:54.964Z,27.92
2022-08-17T05:01:28.247Z,27.85
2022-08-17T05:03:49.612Z,27.78
2022-08-17T05:06:16.308Z,27.73
2022-08-17T05:08:35.924Z,27.68
2022-08-17T05:11:31.282Z,27.64
2022-08-17T05:13:46.346Z,27.58
2022-08-17T05:16:20.951Z,27.52
2022-08-17T05:18:49.970Z,27.45
2022-08-17T05:21:06.778Z,27.39
2022-08-17T05:24:10.994Z,27.30
2022-08-17T05:27:35.117Z,27.22
2022-08-17T05:29:52.013Z,27.12
2022-08-17T05:32:40.507Z,27.02
2022-08-17T05:35:01.416Z,26.99
2022-08-17T05:37:36.613Z,26.95
2022-08-17T05:40:09.100Z,26.88
2022-08-17T05:42:30.537Z,26.80
2022-08-17T05:44:45.985Z,26.74
2022-08-17T05:47:06.408Z,26.68
2022-08-17T05:49:43.958Z,26.61
2022-08-17T05:52:41.185Z,26.56
2022-08-17T05:55:13.852Z,26.49
2022-08-17T05:57:42.125Z,26.43
2022-08-17T06:00:12.052Z,26.39
2022-08-17T06:03:19.609Z,26.33
2022-08-17T06:06:42.192Z,26.26
2022-08-17T06:09:31.491Z,26.20
2022-08-17T06:12:22.587Z,26.14
2022-08-17T06:15:27.193Z,26.06
2022-08-17T06:17:42.523Z,25.98
2022-08-17T06:20:37.605Z,25.93
2022-08-17T06:23:01.205Z,25.88
2022-08-17T06:26:06.174Z,25.82
2022-08-17T06:28:49.049Z,25.76
2022-08-17T06:31:24.041Z,25.71
2022-08-17T06:34:05.364Z,25.66
2022-08-17T06:36:48.762Z,25.62
2022-08-17T06:39:29.221Z,25.55
2022-08-17T06:42:55.042Z,25.50
2022-08-17T06:45:45.073Z,25.46
2022-08-17T06:48:16.325Z,25.43
2022-08-17T06:51:27.220Z,25.41
2022-08-17T06:54:33.951Z,25.37
2022-08-17T06:57:17.660Z,25.32
2022-08-17T06:59:57.628Z,25.28
2022-08-17T07:02:29.184Z,25.21
2022-08-17T07:05:22.407Z,25.12
2022-08-17T07:08:17.627Z,25.04
2022-08-17T07:11:05.157Z,24.94
2022-08-17T07:14:17.292Z,24.86
2022-08-17T07:17:10.441Z,24.80
2022-08-17T07:19:44.498Z,24.75
2022-08-17T07:22:57.693Z,24.71
2022-08-17T07:25:23.471Z,24.67
2022-08-17T07:28:19.188Z,24.63
2022-08-17T07:31:08.995Z,24.59
2022-08-17T07:33:39.366Z,24.54
2022-08-17T07:36:02.774Z,24.49
2022-08-17T07:38:49.648Z,24.43
2022-08-17T07:41:07.575Z,24.36
2022-08-17T07:44:15.282Z,24.31
2022-08-17T07:47:11.528Z,24.23
2022-08-17T07:49:49.097Z,24.17
2022-08-17T07:52:50.259Z,24.12
2022-08-17T07:55:44.777Z,24.07
2022-08-17T07:58:03.306Z,24.01
2022-08-17T08:00:29.148Z,23.97
2022-08-17T08:02:50.850Z,23.90
2022-08-17T08:06:00.329Z,23.87
2022-08-17T08:08:50.093Z,23.82
2022-08-17T08:11:44.420Z,23.77
2022-08-17T08:14:28.904Z,23.73
2022-08-17T08:17:05.854Z,23.67
2022-08-17T08:19:45.863Z,23.61
2022-08-17T08:22:59.060Z,23.56
2022-08-17T08:25:53.344Z,23.51
2022-08-17T08:28:12.629Z,23.46
2022-08-17T08:31:00.410Z,23.43
2022-08-17T08:34:49.732Z,23.37
2022-08-17T08:37:42.990Z,23.29
2022-08-17T08:40:32.414Z,23.21
2022-08-17T08:43:18.866Z,23.15
2022-08-17T08:46:25.997Z,23.10
2022-08-17T08:49:12.364Z,23.03
2022-08-17T08:52:22.251Z,22.96
2022-08-17T08:55:34.169Z,22.87
2022-08-17T08:58:31.789Z,22.80
2022-08-17T09:01:01.886Z,22.72
2022-08-17T09:04:06.721Z,22.67
2022-08-17T09:06:59.893Z,22.62
2022-08-17T09:09:48.081Z,22.57
2022-08-17T09:12:38.782Z,22.55
2022-08-17T09:15:33.828Z,22.49
2022-08-17T09:19:03.478Z,22.44
2022-08-17T09:21:50.265Z,22.38
2022-08-17T09:24:55.702Z,22.32
2022-08-17T09:28:21.231Z,22.27
2022-08-17T09:31:17.079Z,22.22
2022-08-17T09:33:44.620Z,22.16
2022-08-17T09:36:20.562Z,22.10
2022-08-17T09:39:35.706Z,22.06
2022-08-17T09:42:46.204Z,22.02
2022-08-17T09:46:13.397Z,21.98
2022-08-17T09:49:25.666Z,21.96
2022-08-17T09:52:49.751Z,21.92
2022-08-17T09:55:41.274Z,21.86
2022-08-17T09:58:41.588Z,21.80
2022-08-17T10:01:46.543Z,21.75
2022-08-17T10:04:48.555Z,21.71
2022-08-17T10:08:08.225Z,21.64
2022-08-17T10:10:38.610Z,21.60
2022-08-17T10:13:39.258Z,21.55
2022-08-17T10:16:49.125Z,21.49
2022-08-17T10:19:49.162Z,21.42
2022-08-17T10:22:54.771Z,21.37
2022-08-17T10:25:56.189Z,21.31
2022-08-17T10:28:57.826Z,21.27
2022-08-17T10:32:04.481Z,21.23
2022-08-17T10:35:07.511Z,21.19
2022-08-17T10:37:58.195Z,21.14
2022-08-17T10:40:58.340Z,21.09
2022-08-17T10:44:37.452Z,21.03
2022-08-17T10:47:28.165Z,20.98
2022-08-17T10:49:42.814Z,20.94
2022-08-17T10:52:11.251Z,20.90
2022-08-17T10:54:27.004Z,20.87
2022-08-17T10:56:55.222Z,20.82
2022-08-17T10:59:37.617Z,20.77
2022-08-17T11:02:59.459Z,20.71
2022-08-17T11:06:15.838Z,20.65
2022-08-17T11:09:21.759Z,20.58
2022-08-17T11:11:52.349Z,20.54
2022-08-17T11:15:09.473Z,20.50
2022-08-17T11:17:52.032Z,20.47
2022-08-17T11:20:41.623Z,20.45
2022-08-17T11:24:15.985Z,20.40
2022-08-17T11:27:33.357Z,20.34
2022-08-17T11:30:39.634Z,20.29
2022-08-17T11:33:46.470Z,20.25
2022-08-17T11:36:38.197Z,20.20
2022-08-17T11:39:16.859Z,20.16
2022-08-17T11:42:50.395Z,20.12
2022-08-17T11:46:17.478Z,20.04
2022-08-17T11:49:28.658Z,19.96
2022-08-17T11:52:24.806Z,19.91
2022-08-17T11:55:03.617Z,19.85
2022-08-17T11:58:38.101Z,19.81
2022-08-17T12:01:29.202Z,19.77
2022-08-17T12:04:20.673Z,19.72
2022-08-17T12:07:41.245Z,19.71
2022-08-17T12:10:12.563Z,19.68
2022-08-17T12:13:01.106Z,19.66
2022-08-17T12:15:51.887Z,19.62
2022-08-17T12:18:44.744Z,19.60
2022-08-17T12:21:59.911Z,19.56
2022-08-17T12:25:17.143Z,19.52
2022-08-17T12:28:06.479Z,19.49
2022-08-17T12:30:56.570Z,19.44
2022-08-17T12:33:29.352Z,19.41
2022-08-17T12:35:57.512Z,19.38
2022-08-17T12:39:14.419Z,19.36
2022-08-17T12:42:30.620Z,19.34
2022-08-17T12:45:18.286Z,19.32
2022-08-17T12:47:59.690Z,19.29
2022-08-17T12:50:39.628Z,19.27
2022-08-17T12:53:30.684Z,19.26
2022-08-17T12:56:16.092Z,19.23
2022-08-17T12:58:54.539Z,19.22
2022-08-17T13:02:16.836Z,19.19
2022-08-17T13:05:10.531Z,19.15
2022-08-17T13:08:33.855Z,19.13
2022-08-17T13:10:57.692Z,19.09
2022-08-17T13:13:35.158Z,19.07
2022-08-17T13:16:43.811Z,19.04
2022-08-17T13:19:39.945Z,19.02
2022-08-17T13:22:44.400Z,18.99
2022-08-17T13:25:54.143Z,18.98
2022-08-17T13:28:36.538Z,18.95
2022-08-17T13:32:21.669Z,18.93
2022-08-17T13:35:15.274Z,18.92
2022-08-17T13:38:28.711Z,18.94
2022-08-17T13:40:59.601Z,18.97
2022-08-17T13:44:09.531Z,18.98
2022-08-17T13:46:42.779Z,19.01
2022-08-17T13:49:50.192Z,19.02
2022-08-17T13:52:40.381Z,19.03
2022-08-17T13:55:43.696Z,19.05
2022-08-17T13:58:45.019Z,19.07
2022-08-17T14:01:16.908Z,19.07
2022-08-17T14:03:36.335Z,19.09
2022-08-17T14:06:11.361Z,19.12
2022-08-17T14:09:12.447Z,19.14
2022-08-17T14:12:20.310Z,19.17
2022-08-17T14:14:56.594Z,19.21
2022-08-17T14:17:38.122Z,19.25
2022-08-17T14:19:52.657Z,19.31
2022-08-17T14:22:45.476Z,19.69
2022-08-17T14:25:31.787Z,20.79
2022-08-17T14:28:01.686Z,21.93
2022-08-17T14:30:52.797Z,22.88
2022-08-17T14:33:39.795Z,23.27
2022-08-17T14:36:20.712Z,23.20
2022-08-17T14:39:04.371Z,22.92
2022-08-17T14:41:54.329Z,22.67
2022-08-17T14:44:20.633Z,22.58
2022-08-17T14:46:36.289Z,22.83
2022-08-17T14:49:05.581Z,23.36
2022-08-17T14:52:23.159Z,24.13
2022-08-17T14:55:30.054Z,25.09
2022-08-17T14:58:23.606Z,25.92
2022-08-17T15:01:20.906Z,26.62
2022-08-17T15:03:55.035Z,27.16
2022-08-17T15:06:21.094Z,27.58
2022-08-17T15:09:15.722Z,27.95
2022-08-17T15:12:05.398Z,28.32
2022-08-17T15:15:13.098Z,28.64
2022-08-17T15:17:45.941Z,28.95
2022-08-17T15:20:14.742Z,29.18
2022-08-17T15:22:59.960Z,29.39
2022-08-17T15:26:27.133Z,29.67
2022-08-17T15:29:31.793Z,29.98
2022-08-17T15:31:52.102Z,30.22
2022-08-17T15:34:08.738Z,30.37
2022-08-17T15:37:25.964Z,30.52
2022-08-17T15:39:35.797Z,30.69
2022-08-17T15:41:58.393Z,30.80
2022-08-17T15:44:44.552Z,30.92
2022-08-17T15:47:23.185Z,31.01
2022-08-17T15:49:40.071Z,31.07
2022-08-17T15:51:58.592Z,31.09
2022-08-17T15:54:34.603Z,31.09
2022-08-17T15:57:03.270Z,31.05
2022-08-17T15:59:59.291Z,30.95
2022-08-17T16:03:46.050Z,30.83
2022-08-17T16:05:52.582Z,30.59
2022-08-17T16:08:21.254Z,30.35
2022-08-17T16:10:41.438Z,30.29
2022-08-17T16:13:11.671Z,30.25
2022-08-17T16:15:57.074Z,30.19
2022-08-17T16:18:16.020Z,30.13
2022-08-17T16:20:44.473Z,30.07
2022-08-17T16:23:18.457Z,30.03
2022-08-17T16:25:52.946Z,29.94
2022-08-17T16:28:35.951Z,29.90
2022-08-17T16:30:59.246Z,29.88
2022-08-17T16:33:56.897Z,29.89
2022-08-17T16:36:25.408Z,29.95
2022-08-17T16:38:32.224Z,29.98
2022-08-17T16:40:39.601Z,30.00
2022-08-17T16:42:49.531Z,30.04
2022-08-17T16:44:58.666Z,30.08
2022-08-17T16:47:11.803Z,30.08
2022-08-17T16:49:38.073Z,30.07
2022-08-17T16:51:49.471Z,30.03
2022-08-17T16:54:07.637Z,29.97
2022-08-17T16:56:36.144Z,29.94
2022-08-17T16:58:47.010Z,29.96
2022-08-17T17:01:00.549Z,29.99
2022-08-17T17:03:19.572Z,30.04
2022-08-17T17:06:06.362Z,30.11
2022-08-17T17:08:31.414Z,30.14
2022-08-17T17:10:46.098Z,30.11
2022-08-17T17:13:02.457Z,30.16
2022-08-17T17:15:12.589Z,30.28
2022-08-17T17:17:53.704Z,30.38
2022-08-17T17:20:23.881Z,30.38
2022-08-17T17:22:49.382Z,30.39
2022-08-17T17:25:28.464Z,30.42
2022-08-17T17:28:27.515Z,30.50
2022-08-17T17:31:27.365Z,30.58
2022-08-17T17:33:47.787Z,30.63
2022-08-17T17:36:08.009Z,30.64
2022-08-17T17:38:22.563Z,30.68
2022-08-17T17:40:47.293Z,30.81
2022-08-17T17:43:09.257Z,30.96
2022-08-17T17:45:33.098Z,31.09
2022-08-17T17:47:42.721Z,31.11
2022-08-17T17:49:57.101Z,31.16
2022-08-17T17:52:38.410Z,31.22
2022-08-17T17:55:03.514Z,31.33
2022-08-17T17:57:32.836Z,31.38
2022-08-17T17:59:46.161Z,31.41
2022-08-17T18:02:51.990Z,31.47
2022-08-17T18:05:15.053Z,31.59
2022-08-17T18:07:48.767Z,31.68
2022-08-17T18:10:29.302Z,31.81
2022-08-17T18:13:09.362Z,31.93
2022-08-17T18:15:52.376Z,32.10
2022-08-17T18:18:38.845Z,32.26
2022-08-17T18:21:21.625Z,32.46
2022-08-17T18:23:41.171Z,32.67
2022-08-17T18:25:51.543Z,32.84
2022-08-17T18:28:23.344Z,33.02
2022-08-17T18:30:58.247Z,33.25
2022-08-17T18:33:25.782Z,33.44
2022-08-17T18:35:58.873Z,33.64
2022-08-17T18:38:41.202Z,33.84
2022-08-17T18:41:27.287Z,33.98
2022-08-17T18:43:53.823Z,34.07
2022-08-17T18:46:36.430Z,34.13
2022-08-17T18:49:32.970Z,34.18
2022-08-17T18:51:44.214Z,34.25
2022-08-17T18:54:11.103Z,34.35
2022-08-17T18:56:27.688Z,34.48
2022-08-17T18:59:03.895Z,34.60
2022-08-17T19:01:22.222Z,34.77
2022-08-17T19:04:43.234Z,34.91
2022-08-17T19:07:17.252Z,35.00
2022-08-17T19:10:46.881Z,35.01
2022-08-17T19:13:39.229Z,34.95
2022-08-17T19:16:11.841Z,34.98
2022-08-17T19:18:27.753Z,35.01
2022-08-17T19:21:04.578Z,35.08
2022-08-17T19:23:32.431Z,35.10
2022-08-17T19:26:50.531Z,35.14
2022-08-17T19:29:05.295Z,35.16
2022-08-17T19:31:26.015Z,35.19
2022-08-17T19:33:39.983Z,35.26
2022-08-17T19:36:15.033Z,35.36
2022-08-17T19:38:45.783Z,35.47
2022-08-17T19:41:20.656Z,35.53
2022-08-17T19:43:35.935Z,35.65
2022-08-17T19:46:26.313Z,35.82
2022-08-17T19:49:48.789Z,35.89
2022-08-17T19:52:24.154Z,35.92
2022-08-17T19:54:44.956Z,36.01
2022-08-17T19:57:33.084Z,36.09
2022-08-17T20:00:03.569Z,36.13
2022-08-17T20:02:30.419Z,36.16
2022-08-17T20:05:11.235Z,36.21
2022-08-17T20:07:28.040Z,36.17
2022-08-17T20:09:51.167Z,36.21
2022-08-17T20:12:09.420Z,36.29
2022-08-17T20:14:34.703Z,36.36
2022-08-17T20:16:45.132Z,36.41
2022-08-17T20:19:00.672Z,36.47
2022-08-17T20:21:48.275Z,36.54
2022-08-17T20:24:44.501Z,36.59
2022-08-17T20:27:31.634Z,36.58
2022-08-17T20:30:02.436Z,36.56
2022-08-17T20:33:19.030Z,36.57
2022-08-17T20:35:37.401Z,36.61
2022-08-17T20:38:03.659Z,36.55
2022-08-17T20:40:54.447Z,36.47
2022-08-17T20:43:26.214Z,36.40
2022-08-17T20:46:27.014Z,36.36
2022-08-17T20:49:03.207Z,36.33
2022-08-17T20:51:29.135Z,36.35
2022-08-17T20:53:55.658Z,36.34
2022-08-17T20:56:06.311Z,36.38
2022-08-17T20:58:24.940Z,36.44
2022-08-17T21:01:28.777Z,36.50
2022-08-17T21:03:52.177Z,36.62
2022-08-17T21:06:04.207Z,36.72
2022-08-17T21:08:34.380Z,36.79
2022-08-17T21:10:54.353Z,36.85
2022-08-17T21:13:43.598Z,36.95
2022-08-17T21:16:49.051Z,37.07
2022-08-17T21:19:48.982Z,37.18
2022-08-17T21:22:11.304Z,37.27
2022-08-17T21:24:44.513Z,37.38
2022-08-17T21:27:36.501Z,37.47
2022-08-17T21:30:41.018Z,37.59
2022-08-17T21:33:44.976Z,37.73
2022-08-17T21:36:40.076Z,37.87
2022-08-17T21:39:50.427Z,37.89
2022-08-17T21:41:59.579Z,37.90
2022-08-17T21:44:30.550Z,37.94
2022-08-17T21:47:15.968Z,37.92
2022-08-17T21:50:23.785Z,37.92
2022-08-17T21:52:35.175Z,37.92
2022-08-17T21:54:50.312Z,37.88
2022-08-17T21:57:12.025Z,37.87
2022-08-17T21:59:53.492Z,37.86
2022-08-17T22:02:38.918Z,37.82
2022-08-17T22:05:10.797Z,37.75
2022-08-17T22:07:38.033Z,37.67
2022-08-17T22:10:57.198Z,37.63
2022-08-17T22:13:17.141Z,37.61
2022-08-17T22:15:30.002Z,37.57
2022-08-17T22:17:51.001Z,37.58
2022-08-17T22:20:10.779Z,37.59
2022-08-17T22:22:58.087Z,37.67
2022-08-17T22:25:09.902Z,37.76
2022-08-17T22:27:20.550Z,37.82
2022-08-17T22:29:57.353Z,37.87
2022-08-17T22:32:35.490Z,37.97
2022-08-17T22:35:28.126Z,38.07
2022-08-17T22:38:04.047Z,38.13
2022-08-17T22:40:56.993Z,38.19
2022-08-17T22:43:26.423Z,38.26
2022-08-17T22:45:34.927Z,38.28
2022-08-17T22:47:50.043Z,38.26
2022-08-17T22:50:07.181Z,38.22
2022-08-17T22:52:57.381Z,38.21
2022-08-17T22:55:28.513Z,38.15
2022-08-17T22:58:17.033Z,38.06
2022-08-17T23:00:59.536Z,37.94
2022-08-17T23:03:54.181Z,37.86
2022-08-17T23:06:47.895Z,37.79
2022-08-17T23:09:05.235Z,37.74
2022-08-17T23:11:36.980Z,37.72
2022-08-17T23:14:00.332Z,37.71
2022-08-17T23:16:32.272Z,37.67
2022-08-17T23:18:59.395Z,37.62
2022-08-17T23:21:33.198Z,37.59
2022-08-17T23:23:44.826Z,37.57
2022-08-17T23:26:13.050Z,37.53
2022-08-17T23:28:23.524Z,37.49
2022-08-17T23:30:45.778Z,37.45
2022-08-17T23:33:09.603Z,37.43
2022-08-17T23:35:17.944Z,37.40
2022-08-17T23:37:28.763Z,37.37
2022-08-17T23:39:39.454Z,37.35
2022-08-17T23:41:54.836Z,37.31
2022-08-17T23:44:08.959Z,37.25
2022-08-17T23:46:23.038Z,37.19
2022-08-17T23:48:36.919Z,37.13
2022-08-17T23:50:55.562Z,37.10
2022-08-17T23:53:07.181Z,37.06
2022-08-17T23:55:17.882Z,36.99
2022-08-17T23:57:33.683Z,36.96
2022-08-17T23:59:46.959Z,36.91
